Time;durP1;ratioP1;P1;durP2;ratioP2;P2;SDS_P1;SDS_P2;PMS_P1;PMS_P2;Temp;Humidity;BMP_temperature;BMP_pressure;BME280_temperature;BME280_humidity;BME280_pressure;Samples;Min_cycle;Max_cycle;Signal;HPM_P1;HPM_P2
2023/03/12 00:00:22;;;;;;;955.43;830.00;;;-0.70;99.90;;;;;;5091336;28;20310;-52
2023/03/12 00:02:51;;;;;;;850.77;710.43;;;-0.70;99.90;;;;;;5090629;28;20320;-52
2023/03/12 00:05:19;;;;;;;1023.70;920.63;;;-0.70;99.90;;;;;;5090349;28;20197;-53
2023/03/12 00:07:47;;;;;;;871.50;766.97;;;-0.70;99.90;;;;;;5090316;28;20202;-52
2023/03/12 00:10:15;;;;;;;1270.47;988.10;;;-0.60;99.90;;;;;;5090495;28;20234;-52
2023/03/12 00:12:43;;;;;;;815.77;744.03;;;-0.60;99.90;;;;;;5089742;28;20259;-53
2023/03/12 00:15:11;;;;;;;1214.07;879.67;;;-0.60;99.90;;;;;;5090691;28;20276;-52
2023/03/12 00:17:39;;;;;;;937.77;833.97;;;-0.60;99.90;;;;;;5090547;28;20201;-53
2023/03/12 00:20:11;;;;;;;1122.70;838.70;;;-0.60;99.90;;;;;;5087473;28;20305;-53
2023/03/12 00:22:39;;;;;;;1013.33;886.70;;;-0.50;99.90;;;;;;5089919;28;20260;-53
2023/03/12 00:25:11;;;;;;;993.40;853.77;;;-0.50;99.90;;;;;;5087499;28;20516;-52
2023/03/12 00:27:39;;;;;;;730.17;658.70;;;-0.50;99.90;;;;;;5090501;28;20264;-53
2023/03/12 00:30:09;;;;;;;884.67;792.10;;;-0.50;99.90;;;;;;5087293;28;20286;-52
2023/03/12 00:32:37;;;;;;;874.40;786.73;;;-0.40;99.90;;;;;;5090083;28;20311;-53
2023/03/12 00:35:07;;;;;;;665.93;608.07;;;-0.40;99.90;;;;;;5089995;28;20214;-53
2023/03/12 00:37:36;;;;;;;755.47;685.33;;;-0.40;99.90;;;;;;5089773;28;20280;-52
2023/03/12 00:40:08;;;;;;;906.43;806.77;;;-0.40;99.90;;;;;;5090050;28;20264;-52
2023/03/12 00:42:36;;;;;;;952.37;857.93;;;-0.40;99.90;;;;;;5089570;28;20226;-53
2023/03/12 00:45:04;;;;;;;587.63;530.37;;;-0.30;99.90;;;;;;5082848;28;20673;-52
2023/03/12 00:47:32;;;;;;;680.17;613.13;;;-0.30;99.90;;;;;;5080660;28;20281;-52
2023/03/12 00:50:00;;;;;;;643.87;585.50;;;-0.30;99.90;;;;;;5083364;28;20209;-54
2023/03/12 00:52:28;;;;;;;613.33;558.40;;;-0.30;99.90;;;;;;5081063;28;20231;-52
2023/03/12 00:54:58;;;;;;;727.27;662.67;;;-0.30;99.90;;;;;;5082187;28;20583;-53
2023/03/12 00:57:26;;;;;;;586.80;540.07;;;-0.30;99.90;;;;;;5086164;28;20698;-53
2023/03/12 00:59:54;;;;;;;638.07;584.00;;;-0.30;99.90;;;;;;5089808;28;20250;-53
2023/03/12 01:02:22;;;;;;;553.23;503.90;;;-0.30;99.90;;;;;;5089909;28;20233;-52
2023/03/12 01:04:50;;;;;;;571.37;515.20;;;-0.30;99.90;;;;;;5089854;28;20290;-53
2023/03/12 01:07:18;;;;;;;387.00;355.33;;;-0.20;99.90;;;;;;5089822;28;20313;-52
2023/03/12 01:09:46;;;;;;;603.43;539.27;;;-0.20;99.90;;;;;;5089755;28;20295;-53
2023/03/12 01:12:15;;;;;;;600.73;538.07;;;-0.20;99.90;;;;;;5089394;28;20332;-52
2023/03/12 01:14:43;;;;;;;739.73;667.77;;;-0.20;99.90;;;;;;5089855;28;20246;-53
2023/03/12 01:17:11;;;;;;;451.43;410.30;;;-0.20;99.90;;;;;;5089448;28;20634;-52
2023/03/12 01:19:39;;;;;;;624.57;563.13;;;-0.20;99.90;;;;;;5089386;28;20776;-53
2023/03/12 01:22:07;;;;;;;718.43;650.97;;;-0.20;99.90;;;;;;5089220;28;20226;-53
2023/03/12 01:24:35;;;;;;;639.27;571.90;;;-0.20;99.90;;;;;;5089294;28;20249;-53
2023/03/12 01:27:03;;;;;;;717.00;642.97;;;-0.20;99.90;;;;;;5089569;28;20208;-53
2023/03/12 01:29:32;;;;;;;657.93;592.73;;;-0.10;99.90;;;;;;5089293;28;20239;-53
2023/03/12 01:32:00;;;;;;;827.00;732.23;;;-0.20;99.90;;;;;;5089015;28;20258;-52
2023/03/12 01:34:29;;;;;;;703.47;633.43;;;-0.20;99.90;;;;;;5089822;28;20300;-52
2023/03/12 01:36:57;;;;;;;680.30;607.20;;;-0.20;99.90;;;;;;5089380;28;20237;-53
2023/03/12 01:39:25;;;;;;;599.93;544.80;;;-0.20;99.90;;;;;;5089640;28;20301;-53
2023/03/12 01:41:53;;;;;;;502.87;453.90;;;-0.20;99.90;;;;;;5089207;28;20264;-53
2023/03/12 01:44:21;;;;;;;478.30;437.93;;;-0.20;99.90;;;;;;5089434;28;20253;-53
2023/03/12 01:46:50;;;;;;;471.87;427.97;;;-0.20;99.90;;;;;;5089620;28;20290;-51
2023/03/12 01:49:23;;;;;;;563.77;510.63;;;-0.30;99.90;;;;;;5089370;28;20316;-52
2023/03/12 01:51:56;;;;;;;627.87;568.10;;;-0.30;99.90;;;;;;5089376;28;20266;-53
2023/03/12 01:54:29;;;;;;;757.30;678.13;;;-0.30;99.90;;;;;;5088840;28;20305;-53
2023/03/12 01:56:58;;;;;;;856.70;768.00;;;-0.30;99.90;;;;;;5089512;28;20220;-52
2023/03/12 01:59:30;;;;;;;682.97;625.97;;;-0.30;99.90;;;;;;5088804;28;20298;-53
2023/03/12 02:02:00;;;;;;;665.33;596.53;;;-0.20;99.90;;;;;;5088833;28;20421;-53
2023/03/12 02:04:30;;;;;;;748.97;667.33;;;-0.30;99.90;;;;;;5088848;28;20231;-53
2023/03/12 02:07:04;;;;;;;528.23;483.73;;;-0.30;99.90;;;;;;5088570;28;20203;-53
2023/03/12 02:09:34;;;;;;;622.90;558.30;;;-0.20;99.90;;;;;;5088996;28;20295;-53
2023/03/12 02:12:02;;;;;;;587.73;531.70;;;-0.20;99.90;;;;;;5088430;28;20222;-54
2023/03/12 02:14:31;;;;;;;676.73;611.40;;;-0.20;99.90;;;;;;5088925;28;20232;-54
2023/03/12 02:17:00;;;;;;;362.50;333.67;;;-0.10;99.90;;;;;;5088732;28;20297;-53
2023/03/12 02:19:39;;;;;;;566.90;516.43;;;-0.10;99.90;;;;;;5089195;28;20241;-53
2023/03/12 02:22:08;;;;;;;581.00;525.87;;;-0.10;99.90;;;;;;5089036;28;20234;-53
2023/03/12 02:24:43;;;;;;;616.13;558.33;;;-0.10;99.90;;;;;;5088785;28;20306;-53
2023/03/12 02:27:12;;;;;;;585.70;532.33;;;-0.10;99.90;;;;;;5088891;28;20577;-53
2023/03/12 02:29:43;;;;;;;797.73;639.17;;;-0.10;99.90;;;;;;5088330;28;20821;-52
2023/03/12 02:32:17;;;;;;;880.13;785.30;;;-0.10;99.90;;;;;;5091226;28;20230;-52
2023/03/12 02:34:46;;;;;;;647.97;585.90;;;-0.10;99.90;;;;;;5092866;28;20708;-53
2023/03/12 02:37:15;;;;;;;897.13;799.33;;;-0.20;99.90;;;;;;5092722;28;20344;-52
2023/03/12 02:39:45;;;;;;;810.73;629.40;;;-0.20;99.90;;;;;;5093070;28;20221;-53
2023/03/12 02:42:14;;;;;;;808.07;716.83;;;-0.30;99.90;;;;;;5078239;28;20326;-52
2023/03/12 02:44:43;;;;;;;764.60;626.03;;;-0.30;99.90;;;;;;5071724;28;20207;-53
2023/03/12 02:47:11;;;;;;;599.50;549.50;;;-0.30;99.90;;;;;;5072066;28;20208;-53
2023/03/12 02:49:39;;;;;;;679.63;613.33;;;-0.30;99.90;;;;;;5072394;28;20208;-53
2023/03/12 02:52:08;;;;;;;682.63;622.43;;;-0.40;99.90;;;;;;5072485;28;20256;-53
2023/03/12 02:54:36;;;;;;;764.87;687.57;;;-0.40;99.90;;;;;;5090176;28;20686;-53
2023/03/12 02:57:05;;;;;;;823.37;715.17;;;-0.40;99.90;;;;;;5092715;28;20249;-53
2023/03/12 02:59:34;;;;;;;723.27;651.27;;;-0.50;99.90;;;;;;5092442;28;20252;-53
2023/03/12 03:02:03;;;;;;;789.63;702.80;;;-0.50;99.90;;;;;;5091726;28;20333;-53
2023/03/12 03:04:33;;;;;;;558.63;499.77;;;-0.50;99.90;;;;;;5092594;28;20210;-52
2023/03/12 03:07:01;;;;;;;654.37;590.47;;;-0.50;99.90;;;;;;5091774;28;20202;-53
2023/03/12 03:09:29;;;;;;;894.37;796.93;;;-0.50;99.90;;;;;;5092301;28;20290;-52
2023/03/12 03:11:57;;;;;;;435.30;398.67;;;-0.40;99.90;;;;;;5091800;28;20331;-53
2023/03/12 03:14:25;;;;;;;418.40;382.33;;;-0.40;99.90;;;;;;5092367;28;20595;-51
2023/03/12 03:16:55;;;;;;;947.40;790.60;;;-0.30;99.90;;;;;;5092293;28;20297;-52
2023/03/12 03:19:23;;;;;;;452.30;413.57;;;-0.40;99.90;;;;;;5091540;28;20207;-53
2023/03/12 03:21:51;;;;;;;425.97;389.67;;;-0.30;99.90;;;;;;5091745;28;20237;-53
2023/03/12 03:24:19;;;;;;;862.30;775.60;;;-0.30;99.90;;;;;;5092044;28;20208;-53
2023/03/12 03:26:47;;;;;;;401.70;357.17;;;-0.20;99.90;;;;;;5092260;28;20671;-52
2023/03/12 03:29:15;;;;;;;578.27;518.57;;;-0.20;99.90;;;;;;5091809;28;20712;-51
2023/03/12 03:31:43;;;;;;;477.23;429.63;;;-0.30;99.90;;;;;;5092205;28;20310;-52
2023/03/12 03:34:13;;;;;;;575.63;515.37;;;-0.20;99.90;;;;;;5091909;28;20301;-52
2023/03/12 03:36:41;;;;;;;449.17;403.43;;;-0.20;99.90;;;;;;5091804;28;20217;-53
2023/03/12 03:39:09;;;;;;;650.10;569.53;;;-0.20;99.90;;;;;;5091840;28;20325;-53
2023/03/12 03:41:37;;;;;;;373.67;339.10;;;-0.20;99.90;;;;;;5091022;28;20213;-52
2023/03/12 03:44:06;;;;;;;295.67;268.53;;;-0.10;99.90;;;;;;5091643;28;20236;-51
2023/03/12 03:46:35;;;;;;;896.43;793.17;;;0.00;99.90;;;;;;5091545;28;20579;-52
2023/03/12 03:49:03;;;;;;;720.60;649.03;;;0.00;99.90;;;;;;5091628;28;20282;-53
2023/03/12 03:51:33;;;;;;;734.87;616.80;;;0.00;99.90;;;;;;5090809;28;20650;-53
2023/03/12 03:54:01;;;;;;;732.07;616.70;;;0.00;99.90;;;;;;5091180;28;20247;-52
2023/03/12 03:56:29;;;;;;;950.70;833.63;;;0.00;99.90;;;;;;5091449;28;20247;-53
2023/03/12 03:58:58;;;;;;;662.77;601.40;;;0.00;99.90;;;;;;5091445;28;20293;-52
2023/03/12 04:01:26;;;;;;;549.83;502.10;;;0.00;99.90;;;;;;5091435;28;20252;-52
2023/03/12 04:03:54;;;;;;;799.33;715.77;;;0.00;99.90;;;;;;5091536;28;20226;-53
2023/03/12 04:06:22;;;;;;;763.03;683.13;;;0.00;99.90;;;;;;5091299;28;20237;-53
2023/03/12 04:08:51;;;;;;;410.27;373.53;;;0.10;99.90;;;;;;5091434;28;20228;-53
2023/03/12 04:11:21;;;;;;;516.73;469.93;;;0.10;99.90;;;;;;5091096;28;20320;-52
2023/03/12 04:13:50;;;;;;;407.57;370.50;;;0.20;99.90;;;;;;5090917;28;20221;-52
2023/03/12 04:16:18;;;;;;;368.80;335.00;;;0.20;99.90;;;;;;5091015;28;20210;-52
2023/03/12 04:18:46;;;;;;;326.47;297.87;;;0.20;99.90;;;;;;5091083;28;20250;-53
2023/03/12 04:21:16;;;;;;;344.93;314.07;;;0.20;99.90;;;;;;5090864;28;20308;-53
2023/03/12 04:23:44;;;;;;;712.13;631.53;;;0.20;99.90;;;;;;5090267;28;20258;-53
2023/03/12 04:26:14;;;;;;;313.83;287.13;;;0.20;99.90;;;;;;5090641;28;20312;-54
2023/03/12 04:28:42;;;;;;;495.67;447.27;;;0.20;99.90;;;;;;5090566;28;20303;-53
2023/03/12 04:31:11;;;;;;;474.77;431.77;;;0.20;99.90;;;;;;5090920;28;20322;-53
2023/03/12 04:33:40;;;;;;;362.07;329.07;;;0.20;99.90;;;;;;5090133;28;20597;-52
2023/03/12 04:36:08;;;;;;;403.23;366.27;;;0.20;99.90;;;;;;5090229;28;20612;-53
2023/03/12 04:38:36;;;;;;;417.03;379.40;;;0.20;99.90;;;;;;5090447;28;20202;-53
2023/03/12 04:41:06;;;;;;;360.93;325.63;;;0.10;99.90;;;;;;5090236;28;20258;-52
2023/03/12 04:43:36;;;;;;;602.53;543.20;;;0.10;99.90;;;;;;5090269;28;20231;-53
2023/03/12 04:46:04;;;;;;;520.07;474.23;;;0.00;99.90;;;;;;5090081;28;20293;-53
2023/03/12 04:48:33;;;;;;;257.80;236.43;;;0.10;99.90;;;;;;5090467;28;20215;-52
2023/03/12 04:51:02;;;;;;;541.70;483.33;;;0.00;99.90;;;;;;5090347;28;20214;-53
2023/03/12 04:53:30;;;;;;;371.87;339.50;;;0.10;99.90;;;;;;5089255;28;20237;-53
2023/03/12 04:55:59;;;;;;;633.40;549.70;;;0.10;99.90;;;;;;5090542;28;20204;-52
2023/03/12 04:58:27;;;;;;;551.67;496.87;;;0.10;99.90;;;;;;5089422;28;20205;-52
2023/03/12 05:00:56;;;;;;;617.33;549.00;;;0.10;99.90;;;;;;5090311;28;20235;-53
2023/03/12 05:03:25;;;;;;;606.87;552.53;;;0.10;99.90;;;;;;5089421;28;20322;-53
2023/03/12 05:05:53;;;;;;;783.77;699.17;;;0.00;99.90;;;;;;5089962;28;20219;-53
2023/03/12 05:08:21;;;;;;;561.67;505.30;;;0.00;99.90;;;;;;5090090;28;20238;-53
2023/03/12 05:10:49;;;;;;;478.13;432.87;;;0.00;99.90;;;;;;5089332;28;20667;-53
2023/03/12 05:13:19;;;;;;;711.53;637.27;;;-0.10;99.90;;;;;;5089102;28;20314;-53
2023/03/12 05:15:49;;;;;;;665.73;602.93;;;-0.10;99.90;;;;;;5089453;28;20217;-52
2023/03/12 05:18:20;;;;;;;439.97;405.37;;;-0.10;99.90;;;;;;5089749;28;20212;-52
2023/03/12 05:20:58;;;;;;;642.47;582.60;;;-0.10;99.90;;;;;;5089456;28;20353;-53
2023/03/12 05:23:26;;;;;;;784.60;647.17;;;-0.10;99.90;;;;;;5089831;28;20245;-53
2023/03/12 05:25:54;;;;;;;895.47;802.03;;;-0.10;99.90;;;;;;5090040;28;20630;-53
2023/03/12 05:28:26;;;;;;;827.47;697.63;;;-0.10;99.90;;;;;;5089652;28;20240;-52
2023/03/12 05:30:55;;;;;;;767.90;649.30;;;0.00;99.90;;;;;;5089382;28;20711;-52
2023/03/12 05:33:26;;;;;;;512.93;467.23;;;0.00;99.90;;;;;;5089095;28;20229;-52
2023/03/12 05:35:54;;;;;;;747.30;666.33;;;-0.10;99.90;;;;;;5089672;28;20245;-52
2023/03/12 05:38:22;;;;;;;702.97;637.33;;;0.00;99.90;;;;;;5089272;28;20276;-53
2023/03/12 05:40:54;;;;;;;1062.00;878.43;;;0.10;99.90;;;;;;5089701;28;20290;-53
2023/03/12 05:43:23;;;;;;;487.37;442.63;;;0.20;99.90;;;;;;5088132;28;20225;-53
2023/03/12 05:45:51;;;;;;;736.50;669.13;;;0.20;99.90;;;;;;5089066;28;20242;-53
2023/03/12 05:48:20;;;;;;;649.73;581.00;;;0.20;99.90;;;;;;5089346;28;20252;-53
2023/03/12 05:50:49;;;;;;;696.87;637.60;;;0.30;99.90;;;;;;5089016;28;20300;-53
2023/03/12 05:53:17;;;;;;;680.43;616.13;;;0.30;99.90;;;;;;5089422;28;20263;-52
2023/03/12 05:55:45;;;;;;;1023.30;878.03;;;0.30;99.90;;;;;;5089017;28;20770;-53
2023/03/12 05:58:13;;;;;;;1078.90;932.23;;;0.40;99.90;;;;;;5088720;28;20301;-53
2023/03/12 06:00:43;;;;;;;713.23;647.30;;;0.40;99.90;;;;;;5088900;28;20230;-53
2023/03/12 06:03:12;;;;;;;892.03;806.03;;;0.40;99.90;;;;;;5088685;28;20237;-52
2023/03/12 06:05:40;;;;;;;818.53;737.60;;;0.50;99.90;;;;;;5089029;28;20578;-52
2023/03/12 06:08:09;;;;;;;842.47;754.93;;;0.50;99.90;;;;;;5088756;28;20688;-52
2023/03/12 06:10:38;;;;;;;735.67;659.30;;;0.60;99.90;;;;;;5088825;28;20716;-52
2023/03/12 06:13:07;;;;;;;968.13;799.13;;;0.60;99.90;;;;;;5088633;28;20322;-53
2023/03/12 06:15:35;;;;;;;799.77;719.73;;;0.60;99.90;;;;;;5088672;28;20241;-53
2023/03/12 06:18:03;;;;;;;792.73;716.87;;;0.50;99.90;;;;;;5089021;28;20260;-53
2023/03/12 06:20:31;;;;;;;817.73;734.67;;;0.50;99.90;;;;;;5088516;28;20212;-52
2023/03/12 06:22:59;;;;;;;568.20;505.43;;;0.60;99.90;;;;;;5088432;28;20317;-53
2023/03/12 06:25:28;;;;;;;690.20;617.63;;;0.60;99.90;;;;;;5088952;28;20251;-53
2023/03/12 06:27:56;;;;;;;684.90;615.50;;;0.60;99.90;;;;;;5088725;28;20233;-53
2023/03/12 06:30:25;;;;;;;605.87;550.73;;;0.70;99.90;;;;;;5088622;28;20302;-53
2023/03/12 06:32:54;;;;;;;438.83;376.00;;;0.80;99.90;;;;;;5088365;28;20234;-52
2023/03/12 06:35:22;;;;;;;602.57;547.60;;;0.90;99.90;;;;;;5088651;28;20650;-52
2023/03/12 06:37:50;;;;;;;540.67;491.80;;;0.90;99.90;;;;;;5088600;28;20212;-53
2023/03/12 06:40:18;;;;;;;521.33;466.27;;;0.90;99.90;;;;;;5088453;28;20295;-54
2023/03/12 06:42:47;;;;;;;701.70;624.40;;;0.90;99.90;;;;;;5087736;28;20591;-53
2023/03/12 06:45:15;;;;;;;839.43;751.20;;;0.90;99.90;;;;;;5087665;28;20581;-53
2023/03/12 06:47:43;;;;;;;600.50;542.77;;;0.90;99.90;;;;;;5088326;28;20280;-53
2023/03/12 06:50:11;;;;;;;429.37;395.43;;;1.00;99.90;;;;;;5088127;28;20325;-52
2023/03/12 06:52:40;;;;;;;612.50;554.83;;;1.10;99.90;;;;;;5087892;28;20226;-52
2023/03/12 06:55:09;;;;;;;682.63;621.33;;;1.10;99.90;;;;;;5085871;28;20211;-53
2023/03/12 06:57:40;;;;;;;583.60;523.70;;;1.10;99.90;;;;;;5080003;28;20283;-52
2023/03/12 07:00:11;;;;;;;1188.10;819.30;;;1.20;99.90;;;;;;5076334;28;20734;-53
2023/03/12 07:02:39;;;;;;;1327.83;968.57;;;1.30;99.90;;;;;;5083118;28;20248;-53
2023/03/12 07:05:08;;;;;;;1999.90;892.53;;;1.30;99.90;;;;;;5082849;28;20221;-53
2023/03/12 07:07:37;;;;;;;1284.57;897.73;;;1.30;99.90;;;;;;5076485;28;20205;-53
2023/03/12 07:10:06;;;;;;;1560.70;957.67;;;1.30;99.90;;;;;;5078494;28;20237;-52
2023/03/12 07:12:34;;;;;;;1784.23;868.00;;;1.30;99.90;;;;;;5078745;28;20313;-52
2023/03/12 07:15:02;;;;;;;882.93;753.53;;;1.30;99.90;;;;;;5087503;28;20765;-53
2023/03/12 07:17:31;;;;;;;1250.73;912.70;;;1.40;99.90;;;;;;5089460;28;20207;-53
2023/03/12 07:19:59;;;;;;;1295.47;806.27;;;1.40;99.90;;;;;;5091413;28;20291;-53
2023/03/12 07:22:27;;;;;;;1921.47;964.53;;;1.50;99.90;;;;;;5091541;28;20318;-53
2023/03/12 07:24:55;;;;;;;1528.20;999.90;;;1.50;99.90;;;;;;5091310;28;20788;-51
2023/03/12 07:27:24;;;;;;;1353.33;839.57;;;1.60;99.90;;;;;;5089471;28;20249;-52
2023/03/12 07:29:52;;;;;;;1999.90;999.90;;;1.70;99.90;;;;;;5087266;28;20638;-53
2023/03/12 07:32:19;;;;;;;1999.90;901.83;;;1.80;99.90;;;;;;5090210;28;20318;-53
2023/03/12 07:34:49;;;;;;;844.73;753.37;;;1.90;99.90;;;;;;5091676;28;20211;-53
2023/03/12 07:37:17;;;;;;;1075.30;826.67;;;1.90;99.90;;;;;;5090482;28;20796;-54
2023/03/12 07:39:49;;;;;;;1508.37;825.47;;;1.90;99.90;;;;;;5091619;28;20305;-53
2023/03/12 07:42:18;;;;;;;1999.90;999.90;;;1.90;99.90;;;;;;5091501;28;20314;-52
2023/03/12 07:44:46;;;;;;;1087.40;800.07;;;2.00;99.90;;;;;;5091240;28;20221;-52
2023/03/12 07:47:14;;;;;;;1012.40;608.70;;;1.90;99.90;;;;;;5091704;28;20671;-51
2023/03/12 07:49:52;;;;;;;1705.40;812.40;;;1.90;99.90;;;;;;5091392;28;20188;-53
2023/03/12 07:52:22;;;;;;;1204.87;861.80;;;1.90;99.90;;;;;;5091492;28;20238;-52
2023/03/12 07:54:51;;;;;;;1867.37;784.17;;;1.90;99.90;;;;;;5091255;28;20226;-53
2023/03/12 07:57:19;;;;;;;855.77;700.27;;;2.00;99.90;;;;;;5091536;28;20218;-53
2023/03/12 07:59:47;;;;;;;1382.60;748.43;;;2.00;99.90;;;;;;5091395;28;20625;-52
2023/03/12 08:02:15;;;;;;;1633.07;962.07;;;2.00;99.90;;;;;;5090858;28;20245;-54
2023/03/12 08:04:44;;;;;;;1607.67;741.00;;;2.00;99.90;;;;;;5091668;28;20627;-53
2023/03/12 08:07:14;;;;;;;1951.23;798.70;;;2.00;99.90;;;;;;5091130;28;20208;-53
2023/03/12 08:09:42;;;;;;;837.40;635.53;;;1.90;99.90;;;;;;5091822;28;20213;-53
2023/03/12 08:12:11;;;;;;;1688.80;862.93;;;1.90;99.90;;;;;;5070668;28;20225;-53
2023/03/12 08:14:39;;;;;;;1999.90;801.27;;;1.90;99.90;;;;;;5087962;28;20208;-53
2023/03/12 08:17:07;;;;;;;1032.33;678.70;;;1.90;99.90;;;;;;5091676;28;20665;-52
2023/03/12 08:19:35;;;;;;;1310.83;771.43;;;1.90;99.90;;;;;;5087951;28;20238;-51
2023/03/12 08:22:04;;;;;;;1999.90;765.80;;;2.00;99.90;;;;;;5090573;28;20236;-53
2023/03/12 08:24:34;;;;;;;1999.90;941.60;;;2.10;99.90;;;;;;5090063;28;20281;-53
2023/03/12 08:27:02;;;;;;;1922.40;843.77;;;2.20;99.90;;;;;;5090792;28;20291;-53
2023/03/12 08:29:31;;;;;;;1453.90;605.27;;;2.30;99.90;;;;;;5089021;28;20214;-53
2023/03/12 08:32:00;;;;;;;1999.90;878.73;;;2.30;99.90;;;;;;5083433;28;20224;-53
2023/03/12 08:34:33;;;;;;;1000.80;520.47;;;2.40;99.90;;;;;;5087837;28;20214;-52
2023/03/12 08:37:01;;;;;;;1554.47;647.10;;;2.50;99.90;;;;;;5089545;28;20204;-53
2023/03/12 08:39:30;;;;;;;1999.90;859.77;;;2.50;99.90;;;;;;5089913;28;20208;-53
2023/03/12 08:42:00;;;;;;;932.93;603.43;;;2.50;99.90;;;;;;5085914;28;20245;-53
2023/03/12 08:44:28;;;;;;;734.77;487.13;;;2.60;99.90;;;;;;5089232;28;20286;-52
2023/03/12 08:46:57;;;;;;;1330.77;524.33;;;2.60;99.90;;;;;;5089685;28;20211;-53
2023/03/12 08:49:26;;;;;;;1672.63;682.60;;;2.70;99.90;;;;;;5089478;28;20215;-53
2023/03/12 08:51:54;;;;;;;1999.90;682.97;;;2.60;99.90;;;;;;5090070;28;20235;-53
2023/03/12 08:54:22;;;;;;;836.37;492.93;;;2.60;99.90;;;;;;5085922;28;20784;-53
2023/03/12 08:56:51;;;;;;;1999.90;602.77;;;2.50;99.90;;;;;;5085262;28;20305;-52
2023/03/12 08:59:22;;;;;;;1999.90;876.30;;;2.40;99.90;;;;;;5081134;28;20211;-54
2023/03/12 09:01:50;;;;;;;997.30;359.00;;;2.40;99.90;;;;;;5089329;28;20652;-53
2023/03/12 09:04:18;;;;;;;1999.90;613.00;;;2.50;99.90;;;;;;5088744;28;20299;-52
2023/03/12 09:06:47;;;;;;;1039.77;337.50;;;2.40;99.90;;;;;;5089729;28;20225;-52
2023/03/12 09:09:15;;;;;;;1845.73;604.23;;;2.30;99.90;;;;;;5089253;28;20295;-52
2023/03/12 09:11:43;;;;;;;316.77;132.47;;;2.20;99.90;;;;;;5088901;28;20444;-53
2023/03/12 09:14:11;;;;;;;1999.90;586.53;;;2.20;99.90;;;;;;5087207;28;20246;-52
2023/03/12 09:17:01;;;;;;;1716.53;405.93;;;2.10;99.90;;;;;;5089649;28;20212;-52
2023/03/12 09:19:29;;;;;;;1540.70;406.97;;;2.10;99.90;;;;;;5089090;28;20730;-53
2023/03/12 09:21:57;;;;;;;1273.23;351.17;;;2.10;99.90;;;;;;5088755;28;20768;-52
2023/03/12 09:24:25;;;;;;;937.70;302.87;;;2.10;99.90;;;;;;5087457;28;20256;-52
2023/03/12 09:26:53;;;;;;;1353.17;370.97;;;2.00;99.90;;;;;;5088922;28;20335;-52
2023/03/12 09:29:22;;;;;;;1999.90;544.43;;;2.00;99.90;;;;;;5089176;28;20295;-52
2023/03/12 09:31:50;;;;;;;1918.43;485.27;;;2.10;99.90;;;;;;5086982;28;20318;-53
2023/03/12 09:34:19;;;;;;;663.10;226.40;;;2.10;99.90;;;;;;5087533;28;20300;-52
2023/03/12 09:36:47;;;;;;;1191.20;342.33;;;2.00;99.90;;;;;;5088928;28;20648;-52
2023/03/12 09:39:15;;;;;;;1393.17;306.33;;;2.10;99.90;;;;;;5088109;28;20208;-52
2023/03/12 09:41:47;;;;;;;1999.90;508.90;;;2.00;99.90;;;;;;5088333;28;20207;-52
2023/03/12 09:44:26;;;;;;;1319.43;307.77;;;2.00;99.90;;;;;;5087544;28;20261;-53
2023/03/12 09:46:57;;;;;;;1999.90;419.07;;;2.10;99.90;;;;;;5088836;28;20311;-52
2023/03/12 09:49:33;;;;;;;1999.90;746.73;;;2.10;99.90;;;;;;5088832;28;20242;-52
2023/03/12 09:52:06;;;;;;;1999.90;418.37;;;2.00;99.90;;;;;;5088050;28;20329;-53
2023/03/12 09:54:40;;;;;;;1828.20;429.80;;;2.10;99.90;;;;;;5088150;28;20292;-53
2023/03/12 09:57:13;;;;;;;1556.97;276.83;;;2.10;99.90;;;;;;5088823;28;20214;-53
2023/03/12 09:59:41;;;;;;;1232.03;331.23;;;2.10;99.90;;;;;;5088502;28;20216;-52
2023/03/12 10:02:35;;;;;;;1881.33;532.97;;;2.00;99.90;;;;;;5088895;28;20299;-52
2023/03/12 10:05:09;;;;;;;1343.20;277.97;;;2.00;99.90;;;;;;5087840;28;20675;-52
2023/03/12 10:07:46;;;;;;;1926.07;427.07;;;2.00;99.90;;;;;;5089049;28;20216;-52
2023/03/12 10:10:30;;;;;;;967.97;285.67;;;2.10;99.90;;;;;;5088552;28;20243;-53
2023/03/12 10:13:15;;;;;;;213.67;131.67;;;2.10;99.90;;;;;;5088257;28;20236;-53
2023/03/12 10:15:52;;;;;;;1419.73;302.30;;;2.20;99.90;;;;;;5088718;28;20295;-52
2023/03/12 10:18:33;;;;;;;748.77;263.30;;;2.10;99.90;;;;;;5087987;28;20212;-53
2023/03/12 10:21:11;;;;;;;722.33;225.10;;;2.10;99.90;;;;;;5088266;28;20719;-53
2023/03/12 10:23:51;;;;;;;1999.90;576.40;;;2.10;99.90;;;;;;5078362;28;20343;-53
2023/03/12 10:26:24;;;;;;;1999.90;603.90;;;2.10;99.90;;;;;;5084642;28;20212;-52
2023/03/12 10:28:57;;;;;;;940.10;254.57;;;2.10;99.90;;;;;;5087450;28;20288;-53
2023/03/12 10:31:30;;;;;;;1645.50;441.50;;;2.20;99.90;;;;;;5088349;28;20212;-52
2023/03/12 10:34:00;;;;;;;414.00;138.70;;;2.10;99.90;;;;;;5084264;28;20215;-52
2023/03/12 10:36:36;;;;;;;870.13;190.10;;;2.20;99.90;;;;;;5087844;28;20650;-51
2023/03/12 10:39:09;;;;;;;1999.90;506.03;;;2.20;99.90;;;;;;5084604;28;20298;-53
2023/03/12 10:41:38;;;;;;;1999.90;520.43;;;2.20;99.90;;;;;;5087011;28;20294;-53
2023/03/12 10:44:09;;;;;;;1164.17;318.23;;;2.30;99.90;;;;;;5087640;28;20321;-53
2023/03/12 10:47:06;;;;;;;1608.50;444.73;;;2.40;99.90;;;;;;5087841;28;20256;-53
2023/03/12 10:49:35;;;;;;;1331.30;333.50;;;2.40;99.90;;;;;;5087818;28;20240;-52
2023/03/12 10:52:14;;;;;;;1852.90;298.90;;;2.30;99.90;;;;;;5084652;28;20315;-52
2023/03/12 10:54:43;;;;;;;1642.93;480.10;;;2.40;99.90;;;;;;5089259;28;20291;-53
2023/03/12 10:57:14;;;;;;;795.30;268.90;;;2.40;99.90;;;;;;5088466;28;20716;-51
2023/03/12 10:59:44;;;;;;;1999.90;583.40;;;2.50;99.90;;;;;;5090158;28;20206;-54
2023/03/12 11:02:44;;;;;;;1556.30;333.17;;;2.60;99.90;;;;;;5080696;28;20265;-53
2023/03/12 11:05:23;;;;;;;1999.90;474.17;;;2.50;99.90;;;;;;4991267;28;20294;-53
2023/03/12 11:07:53;;;;;;;1651.97;291.03;;;2.50;99.90;;;;;;5060562;28;20327;-52
2023/03/12 11:10:26;;;;;;;1999.90;536.73;;;2.60;99.90;;;;;;5070530;28;20296;-53
2023/03/12 11:12:57;;;;;;;1734.50;337.47;;;2.50;99.90;;;;;;5069549;28;20241;-53
2023/03/12 11:15:30;;;;;;;560.60;208.50;;;2.50;99.90;;;;;;5087443;28;20214;-52
2023/03/12 11:18:19;;;;;;;663.87;205.10;;;2.60;99.90;;;;;;5090452;28;20642;-52
2023/03/12 11:20:51;;;;;;;1589.93;363.13;;;2.70;99.90;;;;;;5090077;28;20235;-51
2023/03/12 11:23:24;;;;;;;1839.63;350.37;;;2.70;99.90;;;;;;5090228;28;20293;-54
2023/03/12 11:25:54;;;;;;;1043.13;188.97;;;2.70;99.90;;;;;;5091683;28;20285;-53
2023/03/12 11:28:25;;;;;;;706.67;177.20;;;2.80;99.90;;;;;;5091947;28;20210;-53
2023/03/12 11:30:56;;;;;;;229.60;112.50;;;2.70;99.90;;;;;;5091402;28;20201;-52
2023/03/12 11:33:25;;;;;;;793.83;188.00;;;2.80;99.90;;;;;;5091584;28;20315;-53
2023/03/12 11:36:07;;;;;;;1264.90;260.90;;;2.80;99.90;;;;;;5091636;28;20641;-51
2023/03/12 11:38:40;;;;;;;1873.30;382.37;;;2.80;99.90;;;;;;5091830;28;20295;-51
2023/03/12 11:41:27;;;;;;;261.30;166.57;;;2.80;99.90;;;;;;5091516;28;20231;-52
2023/03/12 11:44:15;;;;;;;997.57;283.83;;;2.90;99.90;;;;;;5091328;28;20287;-52
2023/03/12 11:47:02;;;;;;;1116.27;285.47;;;2.90;99.90;;;;;;5091313;28;20222;-52
2023/03/12 11:49:46;;;;;;;265.30;84.93;;;3.00;99.90;;;;;;5091603;28;20181;-52
2023/03/12 11:52:24;;;;;;;1521.53;294.27;;;3.10;99.90;;;;;;5090724;28;20341;-53
2023/03/12 11:55:16;;;;;;;533.87;174.10;;;3.20;99.90;;;;;;5091893;28;20289;-52
2023/03/12 11:58:01;;;;;;;1441.63;284.97;;;3.20;99.90;;;;;;5062417;28;20235;-52
2023/03/12 12:00:34;;;;;;;708.07;165.37;;;3.10;99.90;;;;;;5071266;28;20202;-52
2023/03/12 12:03:27;;;;;;;819.27;172.37;;;3.30;99.90;;;;;;5070893;28;20338;-53
2023/03/12 12:06:00;;;;;;;1999.90;459.47;;;3.20;99.90;;;;;;5070870;28;20198;-53
2023/03/12 12:08:49;;;;;;;385.27;126.40;;;3.20;99.90;;;;;;5071269;28;20234;-53
2023/03/12 12:11:27;;;;;;;129.07;71.80;;;3.40;99.90;;;;;;5071019;28;20299;-52
2023/03/12 12:14:03;;;;;;;294.80;68.77;;;3.40;99.90;;;;;;5071488;28;20198;-53
2023/03/12 12:16:51;;;;;;;141.00;86.90;;;3.40;99.90;;;;;;5070630;28;20305;-52
2023/03/12 12:19:29;;;;;;;291.00;132.87;;;3.40;99.90;;;;;;5070885;28;20311;-52
2023/03/12 12:22:08;;;;;;;495.00;177.50;;;3.50;99.90;;;;;;5084854;28;20775;-52
2023/03/12 12:24:51;;;;;;;159.70;78.13;;;3.50;99.90;;;;;;5091017;28;20212;-52
2023/03/12 12:27:23;;;;;;;383.47;155.87;;;3.70;99.90;;;;;;5091100;28;20221;-52